createdAt,value
2023-03-06T00:01:19.197Z,100.00
2023-03-06T00:03:48.699Z,100.00
2023-03-06T00:06:17.699Z,100.00
2023-03-06T00:08:46.059Z,100.00
2023-03-06T00:11:15.128Z,100.00
2023-03-06T00:13:43.204Z,100.00
2023-03-06T00:16:13.434Z,100.00
2023-03-06T00:18:44.371Z,100.00
2023-03-06T00:21:16.322Z,100.00
2023-03-06T00:23:46.520Z,100.00
2023-03-06T00:26:15.150Z,100.00
2023-03-06T00:28:46.072Z,100.00
2023-03-06T00:31:16.312Z,100.00
2023-03-06T00:33:46.173Z,100.00
2023-03-06T00:36:58.505Z,100.00
2023-03-06T00:39:26.474Z,100.00
2023-03-06T00:41:56.273Z,100.00
2023-03-06T00:44:24.844Z,100.00
2023-03-06T00:46:56.878Z,100.00
2023-03-06T00:49:26.173Z,100.00
2023-03-06T00:51:54.694Z,100.00
2023-03-06T00:54:22.964Z,100.00
2023-03-06T00:56:52.197Z,100.00
2023-03-06T00:59:20.416Z,100.00
2023-03-06T01:01:53.434Z,100.00
2023-03-06T01:04:22.671Z,100.00
2023-03-06T01:06:52.844Z,100.00
2023-03-06T01:09:22.396Z,100.00
2023-03-06T01:11:50.800Z,100.00
2023-03-06T01:14:21.132Z,100.00
2023-03-06T01:16:49.823Z,100.00
2023-03-06T01:19:20.155Z,100.00
2023-03-06T01:21:48.985Z,100.00
2023-03-06T01:24:17.513Z,100.00
2023-03-06T01:26:49.486Z,100.00
2023-03-06T01:29:17.705Z,100.00
2023-03-06T01:31:45.900Z,100.00
2023-03-06T01:34:13.978Z,100.00
2023-03-06T01:36:45.130Z,100.00
2023-03-06T01:39:13.400Z,100.00
2023-03-06T01:41:46.345Z,100.00
2023-03-06T01:44:15.539Z,100.00
2023-03-06T01:46:45.541Z,100.00
2023-03-06T01:49:23.148Z,100.00
2023-03-06T01:52:07.787Z,100.00
2023-03-06T01:54:42.917Z,100.00
2023-03-06T01:57:35.037Z,100.00
2023-03-06T02:00:22.576Z,100.00
2023-03-06T02:02:56.411Z,100.00
2023-03-06T02:05:25.453Z,100.00
2023-03-06T02:08:17.338Z,100.00
2023-03-06T02:11:16.441Z,100.00
2023-03-06T02:13:46.547Z,100.00
2023-03-06T02:16:15.026Z,100.00
2023-03-06T02:18:44.853Z,100.00
2023-03-06T02:21:25.489Z,100.00
2023-03-06T02:24:02.307Z,100.00
2023-03-06T02:26:30.882Z,100.00
2023-03-06T02:28:59.765Z,100.00
2023-03-06T02:31:29.989Z,100.00
2023-03-06T02:34:04.964Z,100.00
2023-03-06T02:36:36.388Z,100.00
2023-03-06T02:39:04.632Z,100.00
2023-03-06T02:41:32.889Z,100.00
2023-03-06T02:44:01.230Z,100.00
2023-03-06T02:46:30.196Z,100.00
2023-03-06T02:48:58.370Z,100.00
2023-03-06T02:51:34.012Z,100.00
2023-03-06T02:54:02.320Z,100.00
2023-03-06T02:56:30.487Z,100.00
2023-03-06T02:58:58.966Z,100.00
2023-03-06T03:01:27.415Z,100.00
2023-03-06T03:03:56.055Z,100.00
2023-03-06T03:06:23.963Z,100.00
2023-03-06T03:08:52.464Z,100.00
2023-03-06T03:11:23.206Z,100.00
2023-03-06T03:13:51.748Z,100.00
2023-03-06T03:16:19.870Z,100.00
2023-03-06T03:18:53.481Z,100.00
2023-03-06T03:21:21.551Z,100.00
2023-03-06T03:23:50.025Z,100.00
2023-03-06T03:26:20.561Z,100.00
2023-03-06T03:28:49.188Z,100.00
2023-03-06T03:31:20.027Z,100.00
2023-03-06T03:33:48.447Z,100.00
2023-03-06T03:36:16.587Z,100.00
2023-03-06T03:38:45.175Z,100.00
2023-03-06T03:41:14.790Z,100.00
2023-03-06T03:43:43.720Z,100.00
2023-03-06T03:46:11.881Z,100.00
2023-03-06T03:48:40.851Z,100.00
2023-03-06T03:51:11.034Z,100.00
2023-03-06T03:53:39.202Z,100.00
2023-03-06T03:56:07.354Z,100.00
2023-03-06T03:58:39.764Z,100.00
2023-03-06T04:01:08.263Z,100.00
2023-03-06T04:03:36.451Z,100.00
2023-03-06T04:06:04.567Z,100.00
2023-03-06T04:08:35.530Z,100.00
2023-03-06T04:11:03.993Z,100.00
2023-03-06T04:13:31.971Z,100.00
2023-03-06T04:16:01.193Z,100.00
2023-03-06T04:18:29.922Z,100.00
2023-03-06T04:20:58.606Z,100.00
2023-03-06T04:23:28.333Z,100.00
2023-03-06T04:25:56.613Z,100.00
2023-03-06T04:28:30.172Z,100.00
2023-03-06T04:30:59.918Z,100.00
2023-03-06T04:33:28.350Z,100.00
2023-03-06T04:35:56.300Z,100.00
2023-03-06T04:38:24.267Z,100.00
2023-03-06T04:40:55.220Z,100.00
2023-03-06T04:43:23.449Z,100.00
2023-03-06T04:45:54.078Z,92.78
2023-03-06T04:48:22.133Z,74.61
2023-03-06T04:50:50.464Z,65.71
2023-03-06T04:53:21.683Z,63.98
2023-03-06T04:55:50.547Z,57.21
2023-03-06T04:58:19.438Z,54.12
2023-03-06T05:00:47.676Z,50.91
2023-03-06T05:03:15.617Z,49.32
2023-03-06T05:05:46.801Z,46.57
2023-03-06T05:08:15.890Z,44.57
2023-03-06T05:10:45.738Z,44.15
2023-03-06T05:13:14.918Z,43.21
2023-03-06T05:15:43.288Z,41.55
2023-03-06T05:18:13.298Z,40.54
2023-03-06T05:20:47.511Z,38.60
2023-03-06T05:23:15.921Z,39.58
2023-03-06T05:25:44.574Z,43.07
2023-03-06T05:28:13.997Z,47.81
2023-03-06T05:30:44.553Z,52.10
2023-03-06T05:33:12.678Z,56.16
2023-03-06T05:35:49.470Z,58.11
2023-03-06T05:38:19.139Z,60.21
2023-03-06T05:40:49.183Z,61.13
2023-03-06T05:43:17.093Z,63.05
2023-03-06T05:45:45.484Z,62.75
2023-03-06T05:48:14.271Z,67.83
2023-03-06T05:50:42.924Z,70.24
2023-03-06T05:53:12.727Z,70.92
2023-03-06T05:55:40.903Z,71.43
2023-03-06T05:58:09.175Z,70.19
2023-03-06T06:00:40.068Z,74.01
2023-03-06T06:03:08.221Z,74.00
2023-03-06T06:05:40.309Z,73.46
2023-03-06T06:08:08.325Z,74.41
2023-03-06T06:10:36.064Z,76.10
2023-03-06T06:13:04.088Z,76.15
2023-03-06T06:15:32.318Z,77.18
2023-03-06T06:18:04.880Z,74.36
2023-03-06T06:20:33.030Z,75.12
2023-03-06T06:23:01.632Z,74.12
2023-03-06T06:25:29.795Z,73.41
2023-03-06T06:27:58.299Z,72.18
2023-03-06T06:30:26.119Z,72.82
2023-03-06T06:32:54.296Z,72.19
2023-03-06T06:35:22.666Z,71.71
2023-03-06T06:37:50.704Z,70.53
2023-03-06T06:40:19.026Z,69.08
2023-03-06T06:42:47.628Z,67.63
2023-03-06T06:45:15.719Z,67.30
2023-03-06T06:47:44.915Z,66.61
2023-03-06T06:50:14.588Z,65.95
2023-03-06T06:52:43.418Z,65.91
2023-03-06T06:55:18.243Z,64.94
2023-03-06T06:57:46.591Z,63.89
2023-03-06T07:00:18.073Z,62.88
2023-03-06T07:02:51.747Z,62.53
2023-03-06T07:05:21.128Z,62.74
2023-03-06T07:07:53.471Z,62.44
2023-03-06T07:10:21.519Z,61.79
2023-03-06T07:12:49.887Z,61.07
2023-03-06T07:15:18.569Z,60.45
2023-03-06T07:17:48.931Z,59.84
2023-03-06T07:20:20.028Z,60.31
2023-03-06T07:23:16.606Z,59.57
2023-03-06T07:25:46.470Z,59.13
2023-03-06T07:28:14.813Z,59.26
2023-03-06T07:30:43.653Z,58.28
2023-03-06T07:33:13.715Z,58.54
2023-03-06T07:35:45.929Z,57.93
2023-03-06T07:38:19.376Z,57.12
2023-03-06T07:40:53.645Z,56.78
2023-03-06T07:43:24.364Z,56.13
2023-03-06T07:45:59.694Z,56.13
2023-03-06T07:48:28.399Z,55.74
2023-03-06T07:51:02.039Z,56.54
2023-03-06T07:53:30.155Z,56.71
2023-03-06T07:58:57.171Z,57.54
2023-03-06T08:01:27.560Z,58.20
2023-03-06T08:04:02.236Z,58.12
2023-03-06T08:06:30.678Z,56.47
2023-03-06T08:08:59.804Z,55.32
2023-03-06T08:11:31.999Z,54.21
2023-03-06T08:14:04.460Z,53.40
2023-03-06T08:16:38.322Z,52.67
2023-03-06T08:19:07.112Z,52.47
2023-03-06T08:21:38.853Z,50.48
2023-03-06T08:24:08.287Z,47.99
2023-03-06T08:26:37.546Z,46.89
2023-03-06T08:29:06.374Z,47.77
2023-03-06T08:31:37.715Z,48.32
2023-03-06T08:34:12.625Z,48.66
2023-03-06T08:36:44.111Z,48.31
2023-03-06T08:39:14.433Z,48.08
2023-03-06T08:41:43.603Z,48.46
2023-03-06T08:44:14.473Z,48.80
2023-03-06T08:46:42.827Z,49.44
2023-03-06T08:49:15.519Z,50.39
2023-03-06T08:51:47.700Z,50.48
2023-03-06T08:54:20.262Z,51.50
2023-03-06T08:56:48.616Z,52.03
2023-03-06T08:59:16.268Z,53.29
2023-03-06T09:01:45.431Z,53.90
2023-03-06T09:04:33.131Z,53.35
2023-03-06T09:07:02.128Z,53.83
2023-03-06T09:09:30.625Z,53.52
2023-03-06T09:12:01.619Z,53.74
2023-03-06T09:14:32.549Z,51.74
2023-03-06T09:17:00.682Z,51.12
2023-03-06T09:19:28.757Z,48.92
2023-03-06T09:21:58.257Z,49.08
2023-03-06T09:24:28.389Z,48.46
2023-03-06T09:26:58.680Z,47.92
2023-03-06T09:29:26.884Z,46.43
2023-03-06T09:31:58.848Z,46.71
2023-03-06T09:34:27.993Z,46.20
2023-03-06T09:37:05.163Z,46.00
2023-03-06T09:39:33.576Z,46.08
2023-03-06T09:42:02.360Z,45.90
2023-03-06T09:44:32.197Z,44.27
2023-03-06T09:47:25.855Z,44.12
2023-03-06T09:50:19.065Z,43.60
2023-03-06T09:52:53.604Z,42.00
2023-03-06T09:55:28.735Z,41.63
2023-03-06T09:58:09.850Z,41.76
2023-03-06T10:00:42.232Z,40.60
2023-03-06T10:03:40.205Z,40.99
2023-03-06T10:06:23.528Z,40.56
2023-03-06T10:09:22.173Z,40.79
2023-03-06T10:11:59.866Z,40.09
2023-03-06T10:14:34.882Z,40.04
2023-03-06T10:17:03.350Z,39.51
2023-03-06T10:19:36.862Z,39.82
2023-03-06T10:22:20.764Z,40.26
2023-03-06T10:25:16.773Z,40.06
2023-03-06T10:27:56.589Z,39.80
2023-03-06T10:30:46.062Z,39.90
2023-03-06T10:33:43.574Z,39.58
2023-03-06T10:36:19.401Z,39.14
2023-03-06T10:38:48.963Z,39.17
2023-03-06T10:41:27.732Z,39.00
2023-03-06T10:44:01.776Z,39.37
2023-03-06T10:46:47.560Z,40.07
2023-03-06T10:49:30.200Z,40.43
2023-03-06T10:52:05.949Z,40.76
2023-03-06T10:54:39.230Z,40.48
2023-03-06T10:57:31.593Z,40.37
2023-03-06T11:00:04.832Z,40.75
2023-03-06T11:02:37.264Z,40.96
2023-03-06T11:05:19.606Z,41.48
2023-03-06T11:07:57.849Z,42.13
2023-03-06T11:10:26.956Z,42.88
2023-03-06T11:13:07.993Z,43.08
2023-03-06T11:15:36.146Z,43.55
2023-03-06T11:18:29.040Z,44.27
2023-03-06T11:20:58.113Z,44.37
2023-03-06T11:23:40.349Z,44.37
2023-03-06T11:26:17.843Z,44.60
2023-03-06T11:29:29.469Z,45.28
2023-03-06T11:32:13.873Z,46.02
2023-03-06T11:35:02.718Z,45.83
2023-03-06T11:37:48.267Z,45.71
2023-03-06T11:40:59.547Z,46.25
2023-03-06T11:43:37.395Z,46.15
2023-03-06T11:46:18.088Z,46.41
2023-03-06T11:48:56.827Z,46.55
2023-03-06T11:51:31.195Z,46.66
2023-03-06T11:54:01.593Z,47.13
2023-03-06T11:56:45.232Z,47.54
2023-03-06T11:59:31.760Z,47.20
2023-03-06T12:02:07.728Z,46.69
2023-03-06T12:04:53.139Z,46.49
2023-03-06T12:07:31.568Z,46.28
2023-03-06T12:10:30.345Z,45.65
2023-03-06T12:13:11.558Z,45.59
2023-03-06T12:16:04.312Z,45.65
2023-03-06T12:18:38.873Z,45.28
2023-03-06T12:21:43.796Z,45.95
2023-03-06T12:24:44.086Z,46.73
2023-03-06T12:27:17.528Z,47.25
2023-03-06T12:30:25.821Z,47.71
2023-03-06T12:33:19.460Z,47.92
2023-03-06T12:36:21.644Z,47.64
2023-03-06T12:39:11.713Z,47.40
2023-03-06T12:42:06.735Z,47.77
2023-03-06T12:44:48.162Z,47.95
2023-03-06T12:47:31.339Z,48.17
2023-03-06T12:50:04.907Z,48.41
2023-03-06T12:52:34.915Z,48.98
2023-03-06T12:55:08.585Z,48.53
2023-03-06T12:57:37.977Z,49.09
2023-03-06T13:00:08.803Z,49.07
2023-03-06T13:02:48.194Z,49.99
2023-03-06T13:05:44.493Z,50.15
2023-03-06T13:09:07.911Z,49.98
2023-03-06T13:11:48.612Z,50.07
2023-03-06T13:14:24.885Z,50.11
2023-03-06T13:16:56.284Z,50.73
2023-03-06T13:19:28.542Z,51.32
2023-03-06T13:21:56.764Z,52.15
2023-03-06T13:24:27.838Z,52.19
2023-03-06T13:27:06.829Z,53.08
2023-03-06T13:29:38.776Z,53.51
2023-03-06T13:32:17.024Z,53.68
2023-03-06T13:34:50.495Z,53.71
2023-03-06T13:37:36.560Z,53.04
2023-03-06T13:40:05.357Z,53.35
2023-03-06T13:42:38.314Z,53.56
2023-03-06T13:45:15.048Z,52.55
2023-03-06T13:48:21.147Z,53.11
2023-03-06T13:50:52.079Z,53.57
2023-03-06T13:53:42.825Z,53.24
2023-03-06T13:56:36.064Z,52.92
2023-03-06T13:59:39.827Z,52.89
2023-03-06T14:02:39.481Z,53.99
2023-03-06T14:05:14.552Z,54.40
2023-03-06T14:07:44.849Z,54.33
2023-03-06T14:10:26.713Z,54.53
2023-03-06T14:13:05.126Z,54.71
2023-03-06T14:15:52.948Z,54.93
2023-03-06T14:18:39.048Z,55.31
2023-03-06T14:21:34.336Z,56.24
2023-03-06T14:24:04.587Z,56.27
2023-03-06T14:26:35.133Z,56.33
2023-03-06T14:29:04.215Z,56.50
2023-03-06T14:31:35.627Z,56.76
2023-03-06T14:34:06.399Z,56.70
2023-03-06T14:36:46.596Z,56.75
2023-03-06T14:39:33.892Z,56.81
2023-03-06T14:42:29.768Z,56.83
2023-03-06T14:45:17.630Z,56.91
2023-03-06T14:47:53.309Z,57.17
2023-03-06T14:50:27.127Z,57.17
2023-03-06T14:53:08.351Z,57.13
2023-03-06T14:55:37.022Z,56.83
2023-03-06T14:58:12.944Z,57.66
2023-03-06T15:00:46.652Z,57.84
2023-03-06T15:03:20.621Z,58.23
2023-03-06T15:05:51.792Z,58.87
2023-03-06T15:08:27.120Z,59.87
2023-03-06T15:11:06.747Z,60.51
2023-03-06T15:13:37.242Z,61.31
2023-03-06T15:16:29.917Z,61.32
2023-03-06T15:19:04.145Z,61.97
2023-03-06T15:21:38.514Z,62.34
2023-03-06T15:24:35.932Z,62.89
2023-03-06T15:27:07.827Z,64.01
2023-03-06T15:29:39.378Z,64.49
2023-03-06T15:32:16.410Z,64.73
2023-03-06T15:34:44.545Z,65.00
2023-03-06T15:37:29.045Z,65.74
2023-03-06T15:40:09.514Z,66.32
2023-03-06T15:42:38.387Z,66.57
2023-03-06T15:45:22.039Z,67.42
2023-03-06T15:47:56.061Z,67.38
2023-03-06T15:50:27.511Z,67.88
2023-03-06T15:52:56.909Z,68.72
2023-03-06T15:55:28.904Z,69.09
2023-03-06T15:58:01.166Z,69.40
2023-03-06T16:00:40.419Z,69.93
2023-03-06T16:03:10.967Z,70.18
2023-03-06T16:05:39.161Z,71.22
2023-03-06T16:08:07.630Z,71.54
2023-03-06T16:10:39.590Z,71.34
2023-03-06T16:13:32.413Z,71.45
2023-03-06T16:16:00.400Z,70.72
2023-03-06T16:18:37.961Z,71.21
2023-03-06T16:21:06.824Z,70.87
2023-03-06T16:23:39.136Z,70.71
2023-03-06T16:26:36.739Z,70.41
2023-03-06T16:29:05.185Z,69.79
2023-03-06T16:31:33.204Z,69.30
2023-03-06T16:34:04.590Z,68.31
2023-03-06T16:36:34.914Z,67.73
2023-03-06T16:39:04.469Z,67.64
2023-03-06T16:41:38.128Z,66.81
2023-03-06T16:44:08.041Z,66.28
2023-03-06T16:46:44.456Z,66.16
2023-03-06T16:49:25.478Z,65.80
2023-03-06T16:51:54.562Z,65.79
2023-03-06T16:54:26.366Z,66.18
2023-03-06T16:56:55.153Z,67.71
2023-03-06T16:59:25.317Z,67.92
2023-03-06T17:01:53.665Z,69.18
2023-03-06T17:04:21.729Z,70.21
2023-03-06T17:06:55.755Z,71.43
2023-03-06T17:09:24.919Z,71.82
2023-03-06T17:11:53.510Z,72.17
2023-03-06T17:14:21.650Z,72.69
2023-03-06T17:16:49.430Z,72.38
2023-03-06T17:19:20.236Z,72.45
2023-03-06T17:21:48.458Z,72.17
2023-03-06T17:24:16.391Z,72.25
2023-03-06T17:26:47.285Z,72.39
2023-03-06T17:29:15.729Z,72.92
2023-03-06T17:31:44.143Z,73.25
2023-03-06T17:34:12.423Z,72.54
2023-03-06T17:36:41.437Z,72.89
2023-03-06T17:39:13.549Z,72.55
2023-03-06T17:41:46.370Z,72.53
2023-03-06T17:44:20.508Z,72.50
2023-03-06T17:46:50.452Z,72.21
2023-03-06T17:49:19.782Z,72.26
2023-03-06T17:51:47.699Z,72.28
2023-03-06T17:54:16.347Z,72.86
2023-03-06T17:56:47.558Z,73.30
2023-03-06T17:59:15.744Z,73.44
2023-03-06T18:01:47.155Z,73.75
2023-03-06T18:04:15.364Z,73.77
2023-03-06T18:06:43.596Z,74.12
2023-03-06T18:09:14.698Z,74.20
2023-03-06T18:11:46.192Z,74.09
2023-03-06T18:14:14.704Z,74.44
2023-03-06T18:16:54.134Z,75.23
2023-03-06T18:19:22.684Z,75.16
2023-03-06T18:21:51.025Z,75.56
2023-03-06T18:27:14.193Z,76.12
2023-03-06T18:29:43.556Z,76.29
2023-03-06T18:32:14.703Z,75.74
2023-03-06T18:34:42.760Z,76.11
2023-03-06T18:37:16.620Z,76.22
2023-03-06T18:39:45.483Z,76.58
2023-03-06T18:42:16.078Z,76.92
2023-03-06T18:44:49.541Z,76.90
2023-03-06T18:47:17.831Z,77.12
2023-03-06T18:49:46.316Z,76.97
2023-03-06T18:52:15.452Z,76.83
2023-03-06T18:54:45.397Z,77.80
2023-03-06T18:57:13.531Z,77.47
2023-03-06T18:59:59.573Z,77.81
2023-03-06T19:02:32.554Z,78.46
2023-03-06T19:05:00.983Z,78.41
2023-03-06T19:07:29.204Z,78.60
2023-03-06T19:09:57.570Z,78.84
2023-03-06T19:12:28.782Z,79.12
2023-03-06T19:14:57.142Z,79.36
2023-03-06T19:17:25.434Z,80.20
2023-03-06T19:19:55.766Z,81.08
2023-03-06T19:22:24.541Z,81.79
2023-03-06T19:24:55.457Z,83.01
2023-03-06T19:27:23.655Z,83.66
2023-03-06T19:29:51.793Z,84.79
2023-03-06T19:32:20.156Z,85.46
2023-03-06T19:34:49.997Z,85.84
2023-03-06T19:37:21.032Z,86.09
2023-03-06T19:39:49.207Z,86.37
2023-03-06T19:42:20.199Z,86.64
2023-03-06T19:44:48.359Z,86.88
2023-03-06T19:47:18.338Z,87.58
2023-03-06T19:49:47.139Z,87.36
2023-03-06T19:52:15.634Z,87.53
2023-03-06T19:54:47.769Z,87.86
2023-03-06T19:57:16.643Z,87.80
2023-03-06T19:59:52.085Z,87.39
2023-03-06T20:02:27.188Z,87.08
2023-03-06T20:04:56.027Z,87.91
2023-03-06T20:07:27.438Z,87.88
2023-03-06T20:10:03.328Z,88.26
2023-03-06T20:12:33.512Z,88.65
2023-03-06T20:15:02.398Z,89.15
2023-03-06T20:17:34.087Z,89.32
2023-03-06T20:20:03.243Z,89.22
2023-03-06T20:22:34.256Z,89.68
2023-03-06T20:25:06.857Z,90.48
2023-03-06T20:27:35.371Z,90.62
2023-03-06T20:30:03.984Z,90.60
2023-03-06T20:32:36.537Z,90.09
2023-03-06T20:35:05.402Z,90.07
2023-03-06T20:37:35.001Z,90.24
2023-03-06T20:40:03.991Z,90.36
2023-03-06T20:42:32.640Z,90.59
2023-03-06T20:45:01.173Z,90.37
2023-03-06T20:47:30.849Z,90.98
2023-03-06T20:49:59.428Z,91.37
2023-03-06T20:52:29.440Z,91.77
2023-03-06T20:54:57.803Z,91.97
2023-03-06T20:57:25.917Z,92.62
2023-03-06T20:59:56.738Z,92.96
2023-03-06T21:02:24.940Z,93.30
2023-03-06T21:04:53.309Z,92.94
2023-03-06T21:07:21.592Z,92.43
2023-03-06T21:09:52.769Z,92.08
2023-03-06T21:12:23.807Z,91.67
2023-03-06T21:14:52.174Z,91.82
2023-03-06T21:17:25.901Z,92.16
2023-03-06T21:19:54.199Z,92.78
2023-03-06T21:22:30.811Z,93.34
2023-03-06T21:25:00.005Z,94.42
2023-03-06T21:27:28.744Z,94.79
2023-03-06T21:29:57.428Z,94.63
2023-03-06T21:32:26.352Z,94.27
2023-03-06T21:34:54.605Z,94.13
2023-03-06T21:37:22.863Z,96.13
2023-03-06T21:39:50.920Z,97.30
2023-03-06T21:42:21.353Z,98.23
2023-03-06T21:44:49.354Z,100.00
2023-03-06T21:47:17.490Z,100.00
2023-03-06T21:49:49.470Z,100.00
2023-03-06T21:52:21.041Z,100.00
2023-03-06T21:54:49.899Z,100.00
2023-03-06T21:57:20.934Z,100.00
2023-03-06T21:59:49.555Z,100.00
2023-03-06T22:02:18.237Z,100.00
2023-03-06T22:04:50.671Z,100.00
2023-03-06T22:07:20.547Z,100.00
2023-03-06T22:09:55.752Z,100.00
2023-03-06T22:12:26.907Z,100.00
2023-03-06T22:14:55.253Z,100.00
2023-03-06T22:17:24.355Z,100.00
2023-03-06T22:19:52.957Z,100.00
2023-03-06T22:22:23.110Z,100.00
2023-03-06T22:24:52.158Z,100.00
2023-03-06T22:27:20.224Z,100.00
2023-03-06T22:29:48.406Z,100.00
2023-03-06T22:32:17.102Z,100.00
2023-03-06T22:34:45.379Z,100.00
2023-03-06T22:37:33.620Z,99.36
2023-03-06T22:40:02.457Z,99.12
2023-03-06T22:42:31.009Z,98.43
2023-03-06T22:45:07.029Z,98.35
2023-03-06T22:47:38.655Z,98.14
2023-03-06T22:50:07.363Z,98.04
2023-03-06T22:52:38.582Z,98.00
2023-03-06T22:55:10.741Z,98.05
2023-03-06T22:57:44.729Z,98.39
2023-03-06T23:00:15.033Z,98.03
2023-03-06T23:02:44.424Z,97.84
2023-03-06T23:05:13.809Z,97.62
2023-03-06T23:07:44.266Z,97.75
2023-03-06T23:10:12.914Z,97.46
2023-03-06T23:12:42.135Z,97.43
2023-03-06T23:15:11.074Z,97.45
2023-03-06T23:17:40.264Z,97.81
2023-03-06T23:20:10.502Z,97.95
2023-03-06T23:22:38.484Z,98.15
2023-03-06T23:25:06.922Z,98.23
2023-03-06T23:27:36.243Z,98.35
2023-03-06T23:30:09.500Z,98.25
2023-03-06T23:32:37.828Z,98.56
2023-03-06T23:35:07.909Z,98.69
2023-03-06T23:37:39.008Z,98.94
2023-03-06T23:40:09.738Z,99.77
2023-03-06T23:42:38.887Z,100.00
2023-03-06T23:45:08.192Z,100.00
2023-03-06T23:47:37.867Z,100.00
2023-03-06T23:50:06.840Z,100.00
2023-03-06T23:52:38.891Z,100.00
2023-03-06T23:55:07.781Z,100.00
2023-03-06T23:57:35.978Z,100.00
